Flight Track Log - Related Links

Times and Time Zones

All times are in EDT time to prevent confusion due to time zone crossing. See the PDT4147 flight status page for this flight to view local times or setup timezone preferences in your user account.

Time Position Orientation Groundspeed Altitude Reporting Facility
EDT Latitude Longitude Course Direction KTS MPH feet Rate Location/Type
Wed 04:31:00 PM 37.1592 -79.9858 195° South  Level FlightAware Approximate
Wed 04:32:00 PM 37.1079 -80.0044 202° Southwest  Level FlightAware Approximate
Wed 04:33:00 PM 37.0573 -80.0254 195° South  Level FlightAware Approximate
Wed 04:34:00 PM 37.0047 -80.0333 180° South  Level FlightAware Approximate
Wed 04:35:00 PM 36.9513 -80.0321 176° South  Level FlightAware Approximate
Wed 04:36:00 PM 36.8979 -80.0280 176° South  Level FlightAware Approximate
Wed 04:37:00 PM 36.8446 -80.0239 176° South  Level FlightAware Approximate
Wed 04:38:00 PM 36.7913 -80.0198 176° South  Level FlightAware Approximate
Wed 04:39:00 PM 36.7379 -80.0167 180° South  Level FlightAware Approximate
Wed 04:40:00 PM 36.6845 -80.0146 177° South  Level FlightAware Approximate
Wed 04:41:00 PM 36.6312 -80.0113 177° South  Level FlightAware Approximate
Wed 04:42:00 PM 36.5778 -80.0080 177° South  Level FlightAware Approximate
Wed 04:43:00 PM 36.5244 -80.0046 177° South  Level FlightAware Approximate
Wed 04:44:00 PM 36.4711 -80.0013 177° South  Level FlightAware Approximate
Wed 04:45:00 PM 36.4178 -79.9960 174° South  Level FlightAware Approximate
Wed 04:46:00 PM 36.3647 -79.9893 174° South  Level FlightAware Approximate
Wed 04:47:00 PM 36.3115 -79.9830 177° South  Level FlightAware Approximate
Wed 04:48:00 PM 36.2581 -79.9799 177° South  Level FlightAware Approximate
Wed 04:49:00 PM 36.2048 -79.9767 177° South  Level FlightAware Approximate
Wed 04:50:00 PM 36.1514 -79.9736 177° South  Level FlightAware Approximate
Wed 04:50:14 PM 35.9678 -80.3672 230° Southwest 248 285 6,800  Level Atlanta Center
Wed 04:50:57 PM 35.9206 -80.3875 199° South 251 289 6,100 -519 Descending Atlanta Center
Wed 04:51:00 PM 36.0980 -79.9705 177° South  Level FlightAware Approximate
Wed 04:51:58 PM 35.8567 -80.4186 202° Southwest 249 287 5,900  Level Atlanta Center
Wed 04:52:00 PM 36.0446 -79.9673 177° South  Level FlightAware Approximate
Wed 04:52:59 PM 35.7908 -80.4494 201° Southwest 241 277 5,900  Level Atlanta Center
Wed 04:53:00 PM 36.0061 -80.0064 230° Southwest  Level FlightAware Approximate
Wed 04:54:00 PM 35.9654 -80.0658 230° Southwest  Level FlightAware Approximate
Wed 04:54:00 PM 35.7381 -80.5006 218° Southwest 238 274 5,900  Level Atlanta Center
Wed 04:55:00 PM 35.9235 -80.1267 230° Southwest  Level FlightAware Approximate
Wed 04:55:01 PM 35.6742 -80.5261 198° South 251 289 5,900  Level Atlanta Center
Wed 04:56:03 PM 35.6078 -80.5342 186° South 249 287 5,900 49 Level Atlanta Center
Wed 04:57:04 PM 35.5372 -80.5475 189° South 248 285 6,000  Climbing Atlanta Center
Wed 04:58:05 PM 35.4756 -80.5858 207° Southwest 237 273 5,900 -52 Descending Atlanta Center
Wed 04:59:00 PM 35.4331 -80.6333 222° Southwest 236 272 5,900 -197 Level Atlanta Center
Wed 05:00:07 PM 35.3892 -80.7067 234° Southwest 228 262 5,500 -797 Descending Atlanta Center
Wed 05:01:08 PM 35.3450 -80.7644 227° Southwest 240 276 4,200 -1,279 Descending Atlanta Center

Login

Don't have an account? Register now (free) for customized features, flight alerts, and more!